Terminal Aerodrome Forecast
Issued by NWS

Home | Current Version | Previous Version | Text Only | Print | Product List | Glossary On
Versions: 1 2 3 4 5 6 7 8 9 10 11 12 13 14 15 16
000
FTUS43 KTOP 042320
TAFFOE
TAF
KFOE 042320Z 0500/0524 16014KT P6SM FEW250
     FM050100 16008KT P6SM FEW250
     FM051600 18014KT P6SM FEW250=

USA.gov is the U.S. government's official web portal to all federal, state and local government web resources and services.